sensor_id;sensor_type;location;lat;lon;timestamp;P1;durP1;ratioP1;P2;durP2;ratioP2
11348;SDS011;5729;43.570;27.826;2023-03-30T00:02:25;7.07;;;5.10;;
11348;SDS011;5729;43.570;27.826;2023-03-30T00:04:56;6.37;;;5.43;;
11348;SDS011;5729;43.570;27.826;2023-03-30T00:07:29;6.13;;;5.07;;
11348;SDS011;5729;43.570;27.826;2023-03-30T00:09:55;9.43;;;4.93;;
11348;SDS011;5729;43.570;27.826;2023-03-30T00:12:22;8.00;;;5.47;;
11348;SDS011;5729;43.570;27.826;2023-03-30T00:14:48;7.70;;;5.13;;
11348;SDS011;5729;43.570;27.826;2023-03-30T00:17:13;6.47;;;5.20;;
11348;SDS011;5729;43.570;27.826;2023-03-30T00:19:39;9.67;;;6.40;;
11348;SDS011;5729;43.570;27.826;2023-03-30T00:22:05;13.10;;;9.20;;
11348;SDS011;5729;43.570;27.826;2023-03-30T00:24:32;16.30;;;9.80;;
11348;SDS011;5729;43.570;27.826;2023-03-30T00:26:58;15.50;;;10.03;;
11348;SDS011;5729;43.570;27.826;2023-03-30T00:29:23;15.60;;;9.90;;
11348;SDS011;5729;43.570;27.826;2023-03-30T00:31:49;14.93;;;9.57;;
11348;SDS011;5729;43.570;27.826;2023-03-30T00:34:15;13.40;;;9.37;;
11348;SDS011;5729;43.570;27.826;2023-03-30T00:36:40;12.47;;;9.50;;
11348;SDS011;5729;43.570;27.826;2023-03-30T00:39:06;14.00;;;9.90;;
11348;SDS011;5729;43.570;27.826;2023-03-30T00:41:32;14.00;;;10.03;;
11348;SDS011;5729;43.570;27.826;2023-03-30T00:43:59;18.63;;;10.97;;
11348;SDS011;5729;43.570;27.826;2023-03-30T00:46:26;13.70;;;10.37;;
11348;SDS011;5729;43.570;27.826;2023-03-30T00:48:53;16.07;;;11.10;;
11348;SDS011;5729;43.570;27.826;2023-03-30T00:51:23;20.33;;;12.77;;
11348;SDS011;5729;43.570;27.826;2023-03-30T00:53:51;18.67;;;13.07;;
11348;SDS011;5729;43.570;27.826;2023-03-30T00:56:21;18.20;;;12.37;;
11348;SDS011;5729;43.570;27.826;2023-03-30T00:58:51;17.20;;;11.33;;
11348;SDS011;5729;43.570;27.826;2023-03-30T01:01:19;18.90;;;11.37;;
11348;SDS011;5729;43.570;27.826;2023-03-30T01:03:54;18.80;;;12.70;;
11348;SDS011;5729;43.570;27.826;2023-03-30T01:06:23;14.37;;;9.37;;
11348;SDS011;5729;43.570;27.826;2023-03-30T01:08:54;14.03;;;9.30;;
11348;SDS011;5729;43.570;27.826;2023-03-30T01:11:22;6.50;;;5.30;;
11348;SDS011;5729;43.570;27.826;2023-03-30T01:13:48;7.17;;;5.80;;
11348;SDS011;5729;43.570;27.826;2023-03-30T01:38:40;20.53;;;13.30;;
11348;SDS011;5729;43.570;27.826;2023-03-30T01:44:09;25.87;;;18.07;;
11348;SDS011;5729;43.570;27.826;2023-03-30T01:46:52;23.43;;;15.57;;
11348;SDS011;5729;43.570;27.826;2023-03-30T01:49:31;25.17;;;15.83;;
11348;SDS011;5729;43.570;27.826;2023-03-30T01:54:47;24.20;;;17.33;;
11348;SDS011;5729;43.570;27.826;2023-03-30T01:57:18;27.17;;;18.07;;
11348;SDS011;5729;43.570;27.826;2023-03-30T01:59:53;33.00;;;21.47;;
11348;SDS011;5729;43.570;27.826;2023-03-30T02:02:22;45.57;;;28.30;;
11348;SDS011;5729;43.570;27.826;2023-03-30T02:04:50;54.50;;;35.73;;
11348;SDS011;5729;43.570;27.826;2023-03-30T02:07:21;56.40;;;33.77;;
11348;SDS011;5729;43.570;27.826;2023-03-30T02:09:52;69.10;;;43.80;;
11348;SDS011;5729;43.570;27.826;2023-03-30T02:12:22;68.50;;;44.23;;
11348;SDS011;5729;43.570;27.826;2023-03-30T02:14:50;34.63;;;21.93;;
11348;SDS011;5729;43.570;27.826;2023-03-30T02:17:19;41.27;;;28.17;;
11348;SDS011;5729;43.570;27.826;2023-03-30T02:19:51;36.70;;;20.83;;
11348;SDS011;5729;43.570;27.826;2023-03-30T02:22:18;25.63;;;15.53;;
11348;SDS011;5729;43.570;27.826;2023-03-30T02:24:45;26.87;;;15.60;;
11348;SDS011;5729;43.570;27.826;2023-03-30T02:27:13;37.13;;;20.63;;
11348;SDS011;5729;43.570;27.826;2023-03-30T02:29:40;27.20;;;13.47;;
11348;SDS011;5729;43.570;27.826;2023-03-30T02:32:10;12.07;;;7.80;;
11348;SDS011;5729;43.570;27.826;2023-03-30T02:37:25;11.10;;;6.70;;
11348;SDS011;5729;43.570;27.826;2023-03-30T02:40:08;9.43;;;6.53;;
11348;SDS011;5729;43.570;27.826;2023-03-30T02:54:39;23.70;;;8.87;;
11348;SDS011;5729;43.570;27.826;2023-03-30T02:59:54;18.50;;;9.10;;
11348;SDS011;5729;43.570;27.826;2023-03-30T03:02:33;22.40;;;10.30;;
11348;SDS011;5729;43.570;27.826;2023-03-30T03:05:01;17.27;;;8.57;;
11348;SDS011;5729;43.570;27.826;2023-03-30T03:07:28;17.40;;;8.50;;
11348;SDS011;5729;43.570;27.826;2023-03-30T03:09:58;19.13;;;8.93;;
11348;SDS011;5729;43.570;27.826;2023-03-30T03:12:24;23.33;;;12.83;;
11348;SDS011;5729;43.570;27.826;2023-03-30T03:14:50;23.67;;;12.33;;
11348;SDS011;5729;43.570;27.826;2023-03-30T03:17:16;19.60;;;10.97;;
11348;SDS011;5729;43.570;27.826;2023-03-30T03:19:46;20.30;;;11.20;;
11348;SDS011;5729;43.570;27.826;2023-03-30T03:22:12;21.83;;;11.77;;
11348;SDS011;5729;43.570;27.826;2023-03-30T03:24:37;23.30;;;12.43;;
11348;SDS011;5729;43.570;27.826;2023-03-30T03:27:03;13.43;;;8.17;;
11348;SDS011;5729;43.570;27.826;2023-03-30T03:29:29;12.60;;;8.00;;
11348;SDS011;5729;43.570;27.826;2023-03-30T03:31:54;13.10;;;6.60;;
11348;SDS011;5729;43.570;27.826;2023-03-30T03:34:19;12.13;;;6.43;;
11348;SDS011;5729;43.570;27.826;2023-03-30T03:36:45;16.77;;;6.53;;
11348;SDS011;5729;43.570;27.826;2023-03-30T03:39:10;10.83;;;6.20;;
11348;SDS011;5729;43.570;27.826;2023-03-30T03:41:36;13.10;;;6.27;;
11348;SDS011;5729;43.570;27.826;2023-03-30T03:44:02;11.60;;;7.27;;
11348;SDS011;5729;43.570;27.826;2023-03-30T03:46:27;15.90;;;9.80;;
11348;SDS011;5729;43.570;27.826;2023-03-30T03:48:52;15.73;;;8.97;;
11348;SDS011;5729;43.570;27.826;2023-03-30T03:51:18;15.40;;;9.30;;
11348;SDS011;5729;43.570;27.826;2023-03-30T03:53:44;11.60;;;8.40;;
11348;SDS011;5729;43.570;27.826;2023-03-30T03:56:11;17.67;;;8.00;;
11348;SDS011;5729;43.570;27.826;2023-03-30T03:58:36;14.43;;;8.57;;
11348;SDS011;5729;43.570;27.826;2023-03-30T04:01:02;17.37;;;9.83;;
11348;SDS011;5729;43.570;27.826;2023-03-30T04:03:27;17.27;;;10.50;;
11348;SDS011;5729;43.570;27.826;2023-03-30T04:05:53;13.60;;;8.60;;
11348;SDS011;5729;43.570;27.826;2023-03-30T04:08:21;18.80;;;10.97;;
11348;SDS011;5729;43.570;27.826;2023-03-30T04:10:47;25.77;;;10.23;;
11348;SDS011;5729;43.570;27.826;2023-03-30T04:13:12;16.50;;;10.03;;
11348;SDS011;5729;43.570;27.826;2023-03-30T04:15:38;11.60;;;7.63;;
11348;SDS011;5729;43.570;27.826;2023-03-30T04:18:03;12.27;;;7.60;;
11348;SDS011;5729;43.570;27.826;2023-03-30T04:20:29;15.53;;;7.90;;
11348;SDS011;5729;43.570;27.826;2023-03-30T04:22:54;14.73;;;7.03;;
11348;SDS011;5729;43.570;27.826;2023-03-30T04:25:20;11.70;;;7.37;;
11348;SDS011;5729;43.570;27.826;2023-03-30T04:27:50;23.43;;;7.30;;
11348;SDS011;5729;43.570;27.826;2023-03-30T04:30:16;18.53;;;8.70;;
11348;SDS011;5729;43.570;27.826;2023-03-30T04:32:43;20.63;;;8.10;;
11348;SDS011;5729;43.570;27.826;2023-03-30T04:35:10;14.80;;;7.30;;
11348;SDS011;5729;43.570;27.826;2023-03-30T04:37:38;8.93;;;5.90;;
11348;SDS011;5729;43.570;27.826;2023-03-30T04:40:06;10.10;;;5.47;;
11348;SDS011;5729;43.570;27.826;2023-03-30T04:42:37;14.97;;;6.60;;
11348;SDS011;5729;43.570;27.826;2023-03-30T04:45:03;17.97;;;7.77;;
11348;SDS011;5729;43.570;27.826;2023-03-30T04:47:30;15.20;;;7.33;;
11348;SDS011;5729;43.570;27.826;2023-03-30T04:49:56;15.83;;;7.50;;
11348;SDS011;5729;43.570;27.826;2023-03-30T04:52:21;17.73;;;8.77;;
11348;SDS011;5729;43.570;27.826;2023-03-30T04:54:47;16.13;;;7.53;;
11348;SDS011;5729;43.570;27.826;2023-03-30T04:57:13;15.20;;;7.50;;
11348;SDS011;5729;43.570;27.826;2023-03-30T04:59:40;14.83;;;7.07;;
11348;SDS011;5729;43.570;27.826;2023-03-30T05:02:06;14.30;;;7.67;;
11348;SDS011;5729;43.570;27.826;2023-03-30T05:04:32;17.67;;;7.67;;
11348;SDS011;5729;43.570;27.826;2023-03-30T05:06:58;18.87;;;8.70;;
11348;SDS011;5729;43.570;27.826;2023-03-30T05:09:24;9.73;;;6.50;;
11348;SDS011;5729;43.570;27.826;2023-03-30T05:11:49;8.43;;;5.87;;
11348;SDS011;5729;43.570;27.826;2023-03-30T05:14:15;11.83;;;6.37;;
11348;SDS011;5729;43.570;27.826;2023-03-30T05:16:41;13.00;;;5.87;;
11348;SDS011;5729;43.570;27.826;2023-03-30T05:19:06;11.33;;;5.93;;
11348;SDS011;5729;43.570;27.826;2023-03-30T05:21:32;9.30;;;6.43;;
11348;SDS011;5729;43.570;27.826;2023-03-30T05:23:58;9.83;;;6.23;;
11348;SDS011;5729;43.570;27.826;2023-03-30T05:26:24;40.93;;;29.50;;
11348;SDS011;5729;43.570;27.826;2023-03-30T05:28:50;12.20;;;8.03;;
11348;SDS011;5729;43.570;27.826;2023-03-30T05:31:16;12.23;;;8.13;;
11348;SDS011;5729;43.570;27.826;2023-03-30T05:33:42;25.00;;;15.67;;
11348;SDS011;5729;43.570;27.826;2023-03-30T05:36:08;16.23;;;11.50;;
11348;SDS011;5729;43.570;27.826;2023-03-30T05:38:34;23.43;;;15.87;;
11348;SDS011;5729;43.570;27.826;2023-03-30T05:41:00;43.57;;;33.27;;
11348;SDS011;5729;43.570;27.826;2023-03-30T05:43:26;16.97;;;13.77;;
11348;SDS011;5729;43.570;27.826;2023-03-30T05:45:52;8.80;;;6.73;;
11348;SDS011;5729;43.570;27.826;2023-03-30T05:48:17;15.20;;;10.87;;
11348;SDS011;5729;43.570;27.826;2023-03-30T05:50:43;7.57;;;5.20;;
11348;SDS011;5729;43.570;27.826;2023-03-30T05:53:08;11.03;;;6.97;;
11348;SDS011;5729;43.570;27.826;2023-03-30T05:55:34;11.87;;;6.93;;
11348;SDS011;5729;43.570;27.826;2023-03-30T05:57:59;14.00;;;8.20;;
11348;SDS011;5729;43.570;27.826;2023-03-30T06:00:25;13.73;;;7.43;;
11348;SDS011;5729;43.570;27.826;2023-03-30T06:02:52;10.90;;;7.47;;
11348;SDS011;5729;43.570;27.826;2023-03-30T06:05:18;9.23;;;6.40;;
11348;SDS011;5729;43.570;27.826;2023-03-30T06:07:43;10.53;;;7.77;;
11348;SDS011;5729;43.570;27.826;2023-03-30T06:10:10;11.50;;;8.17;;
11348;SDS011;5729;43.570;27.826;2023-03-30T06:12:35;11.70;;;6.77;;
11348;SDS011;5729;43.570;27.826;2023-03-30T06:15:03;9.30;;;5.83;;
11348;SDS011;5729;43.570;27.826;2023-03-30T06:17:29;9.77;;;5.87;;
11348;SDS011;5729;43.570;27.826;2023-03-30T06:19:55;11.20;;;5.17;;
11348;SDS011;5729;43.570;27.826;2023-03-30T06:22:21;9.07;;;4.77;;
11348;SDS011;5729;43.570;27.826;2023-03-30T06:24:47;6.97;;;4.57;;
11348;SDS011;5729;43.570;27.826;2023-03-30T06:27:12;5.50;;;3.80;;
11348;SDS011;5729;43.570;27.826;2023-03-30T06:29:38;5.23;;;3.93;;
11348;SDS011;5729;43.570;27.826;2023-03-30T06:32:04;5.07;;;4.10;;
11348;SDS011;5729;43.570;27.826;2023-03-30T06:34:29;5.40;;;4.50;;
11348;SDS011;5729;43.570;27.826;2023-03-30T06:36:56;7.33;;;4.50;;
11348;SDS011;5729;43.570;27.826;2023-03-30T06:39:21;5.50;;;4.10;;
11348;SDS011;5729;43.570;27.826;2023-03-30T06:41:47;5.27;;;3.97;;
11348;SDS011;5729;43.570;27.826;2023-03-30T06:44:13;14.80;;;11.17;;
11348;SDS011;5729;43.570;27.826;2023-03-30T06:46:41;6.00;;;4.20;;
11348;SDS011;5729;43.570;27.826;2023-03-30T06:49:07;5.90;;;4.23;;
11348;SDS011;5729;43.570;27.826;2023-03-30T06:51:33;6.07;;;3.80;;
11348;SDS011;5729;43.570;27.826;2023-03-30T06:54:02;5.63;;;4.47;;
11348;SDS011;5729;43.570;27.826;2023-03-30T06:56:27;4.20;;;3.30;;
11348;SDS011;5729;43.570;27.826;2023-03-30T06:58:53;4.37;;;3.63;;
11348;SDS011;5729;43.570;27.826;2023-03-30T07:01:19;6.83;;;4.80;;
11348;SDS011;5729;43.570;27.826;2023-03-30T07:03:44;5.17;;;3.30;;
11348;SDS011;5729;43.570;27.826;2023-03-30T07:06:10;8.17;;;5.33;;
11348;SDS011;5729;43.570;27.826;2023-03-30T07:08:36;10.13;;;6.57;;
11348;SDS011;5729;43.570;27.826;2023-03-30T07:11:03;11.23;;;7.00;;
11348;SDS011;5729;43.570;27.826;2023-03-30T07:13:29;18.20;;;9.93;;
11348;SDS011;5729;43.570;27.826;2023-03-30T07:15:55;5.10;;;3.73;;
11348;SDS011;5729;43.570;27.826;2023-03-30T07:18:20;6.03;;;3.80;;
11348;SDS011;5729;43.570;27.826;2023-03-30T07:20:46;19.83;;;11.80;;
11348;SDS011;5729;43.570;27.826;2023-03-30T07:23:11;36.07;;;22.90;;
11348;SDS011;5729;43.570;27.826;2023-03-30T07:25:38;22.53;;;13.40;;
11348;SDS011;5729;43.570;27.826;2023-03-30T07:28:05;30.13;;;18.83;;
11348;SDS011;5729;43.570;27.826;2023-03-30T07:30:34;4.97;;;3.93;;
11348;SDS011;5729;43.570;27.826;2023-03-30T07:33:00;6.10;;;4.87;;
11348;SDS011;5729;43.570;27.826;2023-03-30T07:35:25;5.43;;;4.10;;
11348;SDS011;5729;43.570;27.826;2023-03-30T07:37:51;5.93;;;3.57;;
11348;SDS011;5729;43.570;27.826;2023-03-30T07:40:17;6.57;;;4.80;;
11348;SDS011;5729;43.570;27.826;2023-03-30T07:42:43;5.30;;;3.70;;
11348;SDS011;5729;43.570;27.826;2023-03-30T07:45:09;5.53;;;4.13;;
11348;SDS011;5729;43.570;27.826;2023-03-30T07:47:35;4.57;;;3.30;;
11348;SDS011;5729;43.570;27.826;2023-03-30T07:50:01;4.27;;;3.07;;
11348;SDS011;5729;43.570;27.826;2023-03-30T07:52:27;4.77;;;3.23;;
11348;SDS011;5729;43.570;27.826;2023-03-30T07:54:53;4.93;;;3.50;;
11348;SDS011;5729;43.570;27.826;2023-03-30T07:57:21;5.70;;;3.10;;
11348;SDS011;5729;43.570;27.826;2023-03-30T07:59:47;12.37;;;7.67;;
11348;SDS011;5729;43.570;27.826;2023-03-30T08:02:13;9.97;;;6.30;;
11348;SDS011;5729;43.570;27.826;2023-03-30T08:04:39;7.17;;;4.77;;
11348;SDS011;5729;43.570;27.826;2023-03-30T08:07:05;4.93;;;3.87;;
11348;SDS011;5729;43.570;27.826;2023-03-30T08:09:31;8.30;;;6.57;;
11348;SDS011;5729;43.570;27.826;2023-03-30T08:11:57;12.90;;;5.80;;
11348;SDS011;5729;43.570;27.826;2023-03-30T08:14:23;5.13;;;4.07;;
11348;SDS011;5729;43.570;27.826;2023-03-30T08:16:51;5.20;;;3.00;;
11348;SDS011;5729;43.570;27.826;2023-03-30T08:19:17;4.67;;;4.17;;
11348;SDS011;5729;43.570;27.826;2023-03-30T08:21:43;5.17;;;4.23;;
11348;SDS011;5729;43.570;27.826;2023-03-30T08:24:08;3.80;;;2.33;;
11348;SDS011;5729;43.570;27.826;2023-03-30T08:26:34;5.20;;;3.27;;
11348;SDS011;5729;43.570;27.826;2023-03-30T08:29:00;7.00;;;5.50;;
11348;SDS011;5729;43.570;27.826;2023-03-30T08:31:26;3.80;;;3.07;;
11348;SDS011;5729;43.570;27.826;2023-03-30T08:33:51;5.07;;;3.00;;
11348;SDS011;5729;43.570;27.826;2023-03-30T08:36:17;5.40;;;3.22;;
11348;SDS011;5729;43.570;27.826;2023-03-30T08:38:44;11.43;;;7.97;;
11348;SDS011;5729;43.570;27.826;2023-03-30T08:46:45;4.82;;;3.78;;
11348;SDS011;5729;43.570;27.826;2023-03-30T08:49:13;8.32;;;4.93;;
11348;SDS011;5729;43.570;27.826;2023-03-30T08:51:42;4.07;;;2.90;;
11348;SDS011;5729;43.570;27.826;2023-03-30T08:54:08;4.70;;;3.85;;
11348;SDS011;5729;43.570;27.826;2023-03-30T08:56:56;4.22;;;3.17;;
11348;SDS011;5729;43.570;27.826;2023-03-30T08:59:43;3.60;;;2.60;;
11348;SDS011;5729;43.570;27.826;2023-03-30T09:02:23;3.75;;;2.90;;
11348;SDS011;5729;43.570;27.826;2023-03-30T09:07:46;3.78;;;2.80;;
11348;SDS011;5729;43.570;27.826;2023-03-30T09:10:19;3.45;;;3.08;;
11348;SDS011;5729;43.570;27.826;2023-03-30T09:15:14;5.75;;;3.40;;
11348;SDS011;5729;43.570;27.826;2023-03-30T09:17:44;5.90;;;4.00;;
11348;SDS011;5729;43.570;27.826;2023-03-30T09:20:23;6.40;;;4.10;;
11348;SDS011;5729;43.570;27.826;2023-03-30T09:22:52;3.90;;;3.35;;
11348;SDS011;5729;43.570;27.826;2023-03-30T09:25:22;4.85;;;3.22;;
11348;SDS011;5729;43.570;27.826;2023-03-30T09:27:59;4.30;;;3.42;;
11348;SDS011;5729;43.570;27.826;2023-03-30T09:30:40;9.30;;;4.60;;
11348;SDS011;5729;43.570;27.826;2023-03-30T09:33:34;5.10;;;3.25;;
11348;SDS011;5729;43.570;27.826;2023-03-30T09:38:50;6.13;;;4.63;;
11348;SDS011;5729;43.570;27.826;2023-03-30T09:41:23;18.45;;;12.65;;
11348;SDS011;5729;43.570;27.826;2023-03-30T09:44:04;6.35;;;4.82;;
11348;SDS011;5729;43.570;27.826;2023-03-30T09:46:44;4.75;;;2.90;;
11348;SDS011;5729;43.570;27.826;2023-03-30T09:49:14;9.55;;;6.20;;
11348;SDS011;5729;43.570;27.826;2023-03-30T09:51:54;5.43;;;3.78;;
11348;SDS011;5729;43.570;27.826;2023-03-30T09:54:34;4.72;;;2.80;;
11348;SDS011;5729;43.570;27.826;2023-03-30T09:57:02;6.88;;;3.33;;
11348;SDS011;5729;43.570;27.826;2023-03-30T10:04:56;4.72;;;3.40;;
11348;SDS011;5729;43.570;27.826;2023-03-30T10:07:31;7.53;;;5.68;;
11348;SDS011;5729;43.570;27.826;2023-03-30T10:09:58;6.18;;;3.50;;
11348;SDS011;5729;43.570;27.826;2023-03-30T10:12:37;20.80;;;16.88;;
11348;SDS011;5729;43.570;27.826;2023-03-30T10:15:03;5.38;;;3.42;;
11348;SDS011;5729;43.570;27.826;2023-03-30T10:17:29;4.60;;;3.20;;
11348;SDS011;5729;43.570;27.826;2023-03-30T10:22:50;12.90;;;9.85;;
11348;SDS011;5729;43.570;27.826;2023-03-30T10:25:25;14.63;;;7.07;;
11348;SDS011;5729;43.570;27.826;2023-03-30T10:27:54;4.45;;;2.70;;
11348;SDS011;5729;43.570;27.826;2023-03-30T10:30:22;3.92;;;2.92;;
11348;SDS011;5729;43.570;27.826;2023-03-30T10:32:51;7.55;;;2.92;;
11348;SDS011;5729;43.570;27.826;2023-03-30T10:35:25;4.55;;;3.20;;
11348;SDS011;5729;43.570;27.826;2023-03-30T10:37:56;4.15;;;3.00;;
11348;SDS011;5729;43.570;27.826;2023-03-30T10:40:24;4.60;;;3.55;;
11348;SDS011;5729;43.570;27.826;2023-03-30T10:42:55;3.00;;;2.70;;
11348;SDS011;5729;43.570;27.826;2023-03-30T10:45:32;4.65;;;3.35;;
11348;SDS011;5729;43.570;27.826;2023-03-30T10:48:15;5.60;;;3.17;;
11348;SDS011;5729;43.570;27.826;2023-03-30T10:50:53;6.05;;;2.95;;
11348;SDS011;5729;43.570;27.826;2023-03-30T10:55:57;4.60;;;3.00;;
11348;SDS011;5729;43.570;27.826;2023-03-30T11:01:34;3.97;;;3.53;;
11348;SDS011;5729;43.570;27.826;2023-03-30T11:04:16;4.35;;;3.50;;
11348;SDS011;5729;43.570;27.826;2023-03-30T11:06:47;5.00;;;3.10;;
11348;SDS011;5729;43.570;27.826;2023-03-30T11:09:17;3.88;;;2.63;;
11348;SDS011;5729;43.570;27.826;2023-03-30T11:11:52;6.95;;;3.10;;
11348;SDS011;5729;43.570;27.826;2023-03-30T11:17:22;4.93;;;3.10;;
11348;SDS011;5729;43.570;27.826;2023-03-30T11:19:55;5.40;;;3.45;;
11348;SDS011;5729;43.570;27.826;2023-03-30T11:24:47;5.13;;;3.03;;
11348;SDS011;5729;43.570;27.826;2023-03-30T11:27:20;8.07;;;3.80;;
11348;SDS011;5729;43.570;27.826;2023-03-30T11:35:29;6.10;;;4.05;;
11348;SDS011;5729;43.570;27.826;2023-03-30T11:38:10;5.78;;;4.07;;
11348;SDS011;5729;43.570;27.826;2023-03-30T11:40:47;5.85;;;4.13;;
11348;SDS011;5729;43.570;27.826;2023-03-30T11:43:20;5.13;;;3.22;;
11348;SDS011;5729;43.570;27.826;2023-03-30T11:53:51;4.68;;;3.55;;
11348;SDS011;5729;43.570;27.826;2023-03-30T11:56:32;4.60;;;3.42;;
11348;SDS011;5729;43.570;27.826;2023-03-30T11:59:06;5.32;;;3.72;;
11348;SDS011;5729;43.570;27.826;2023-03-30T12:04:44;5.18;;;4.00;;
11348;SDS011;5729;43.570;27.826;2023-03-30T12:07:24;5.28;;;3.80;;
11348;SDS011;5729;43.570;27.826;2023-03-30T12:09:58;4.53;;;3.50;;
11348;SDS011;5729;43.570;27.826;2023-03-30T12:12:33;6.22;;;4.40;;
11348;SDS011;5729;43.570;27.826;2023-03-30T12:15:11;4.53;;;3.95;;
11348;SDS011;5729;43.570;27.826;2023-03-30T12:26:30;4.55;;;3.85;;
11348;SDS011;5729;43.570;27.826;2023-03-30T12:34:18;5.30;;;4.00;;
11348;SDS011;5729;43.570;27.826;2023-03-30T12:36:46;4.82;;;4.07;;
11348;SDS011;5729;43.570;27.826;2023-03-30T12:39:25;6.45;;;4.45;;
11348;SDS011;5729;43.570;27.826;2023-03-30T12:42:05;5.40;;;4.05;;
11348;SDS011;5729;43.570;27.826;2023-03-30T12:44:51;4.82;;;3.60;;
11348;SDS011;5729;43.570;27.826;2023-03-30T12:56:03;4.78;;;3.85;;
11348;SDS011;5729;43.570;27.826;2023-03-30T13:03:50;6.97;;;4.97;;
11348;SDS011;5729;43.570;27.826;2023-03-30T13:17:05;5.82;;;4.50;;
11348;SDS011;5729;43.570;27.826;2023-03-30T13:24:45;4.63;;;3.70;;
11348;SDS011;5729;43.570;27.826;2023-03-30T13:37:35;6.38;;;3.70;;
11348;SDS011;5729;43.570;27.826;2023-03-30T13:40:15;5.68;;;4.15;;
11348;SDS011;5729;43.570;27.826;2023-03-30T13:42:49;7.25;;;3.60;;
11348;SDS011;5729;43.570;27.826;2023-03-30T13:45:20;8.73;;;4.55;;
11348;SDS011;5729;43.570;27.826;2023-03-30T13:48:02;6.97;;;4.78;;
11348;SDS011;5729;43.570;27.826;2023-03-30T13:50:30;8.30;;;6.07;;
11348;SDS011;5729;43.570;27.826;2023-03-30T13:53:02;6.70;;;5.32;;
11348;SDS011;5729;43.570;27.826;2023-03-30T13:55:37;5.82;;;4.28;;
11348;SDS011;5729;43.570;27.826;2023-03-30T13:58:11;6.65;;;4.28;;
11348;SDS011;5729;43.570;27.826;2023-03-30T14:00:56;4.43;;;4.03;;
11348;SDS011;5729;43.570;27.826;2023-03-30T14:08:46;6.70;;;4.78;;
11348;SDS011;5729;43.570;27.826;2023-03-30T14:11:26;6.90;;;4.38;;
11348;SDS011;5729;43.570;27.826;2023-03-30T14:13:55;4.45;;;3.53;;
11348;SDS011;5729;43.570;27.826;2023-03-30T14:16:25;6.40;;;4.43;;
11348;SDS011;5729;43.570;27.826;2023-03-30T14:18:53;10.90;;;5.32;;
11348;SDS011;5729;43.570;27.826;2023-03-30T14:21:37;8.05;;;5.65;;
11348;SDS011;5729;43.570;27.826;2023-03-30T14:24:09;14.68;;;5.72;;
11348;SDS011;5729;43.570;27.826;2023-03-30T14:26:39;11.15;;;5.55;;
11348;SDS011;5729;43.570;27.826;2023-03-30T14:29:05;7.15;;;4.50;;
11348;SDS011;5729;43.570;27.826;2023-03-30T14:31:39;6.45;;;4.82;;
11348;SDS011;5729;43.570;27.826;2023-03-30T14:37:11;9.13;;;5.82;;
11348;SDS011;5729;43.570;27.826;2023-03-30T14:39:41;5.35;;;4.20;;
11348;SDS011;5729;43.570;27.826;2023-03-30T14:42:18;5.07;;;3.83;;
11348;SDS011;5729;43.570;27.826;2023-03-30T14:44:44;6.32;;;4.68;;
11348;SDS011;5729;43.570;27.826;2023-03-30T14:47:13;6.78;;;3.92;;
11348;SDS011;5729;43.570;27.826;2023-03-30T14:49:40;5.43;;;4.35;;
11348;SDS011;5729;43.570;27.826;2023-03-30T14:52:08;4.88;;;3.72;;
11348;SDS011;5729;43.570;27.826;2023-03-30T14:54:40;5.70;;;4.45;;
11348;SDS011;5729;43.570;27.826;2023-03-30T14:57:07;8.73;;;6.45;;
11348;SDS011;5729;43.570;27.826;2023-03-30T14:59:37;10.23;;;7.00;;
11348;SDS011;5729;43.570;27.826;2023-03-30T15:02:14;6.28;;;4.93;;
11348;SDS011;5729;43.570;27.826;2023-03-30T15:04:45;5.18;;;4.20;;
11348;SDS011;5729;43.570;27.826;2023-03-30T15:07:14;4.22;;;3.75;;
11348;SDS011;5729;43.570;27.826;2023-03-30T15:09:42;4.90;;;4.38;;
11348;SDS011;5729;43.570;27.826;2023-03-30T15:12:34;8.43;;;3.85;;
11348;SDS011;5729;43.570;27.826;2023-03-30T15:15:00;6.78;;;5.20;;
11348;SDS011;5729;43.570;27.826;2023-03-30T15:17:29;13.05;;;7.68;;
11348;SDS011;5729;43.570;27.826;2023-03-30T15:19:57;11.45;;;7.03;;
11348;SDS011;5729;43.570;27.826;2023-03-30T15:22:28;9.30;;;6.13;;
11348;SDS011;5729;43.570;27.826;2023-03-30T15:24:59;18.20;;;12.80;;
11348;SDS011;5729;43.570;27.826;2023-03-30T15:27:27;9.15;;;5.85;;
11348;SDS011;5729;43.570;27.826;2023-03-30T15:29:54;13.20;;;8.02;;
11348;SDS011;5729;43.570;27.826;2023-03-30T15:32:24;10.27;;;6.55;;
11348;SDS011;5729;43.570;27.826;2023-03-30T15:34:58;7.43;;;5.70;;
11348;SDS011;5729;43.570;27.826;2023-03-30T15:38:16;12.18;;;6.60;;
11348;SDS011;5729;43.570;27.826;2023-03-30T15:40:35;11.93;;;7.78;;
11348;SDS011;5729;43.570;27.826;2023-03-30T15:45:54;7.88;;;5.93;;
11348;SDS011;5729;43.570;27.826;2023-03-30T15:48:27;8.10;;;5.25;;
11348;SDS011;5729;43.570;27.826;2023-03-30T15:51:03;9.68;;;6.32;;
11348;SDS011;5729;43.570;27.826;2023-03-30T15:59:20;13.75;;;8.57;;
11348;SDS011;5729;43.570;27.826;2023-03-30T16:01:53;25.77;;;14.90;;
11348;SDS011;5729;43.570;27.826;2023-03-30T16:04:21;22.52;;;17.27;;
11348;SDS011;5729;43.570;27.826;2023-03-30T16:06:48;17.50;;;11.60;;
11348;SDS011;5729;43.570;27.826;2023-03-30T16:09:14;23.70;;;13.18;;
11348;SDS011;5729;43.570;27.826;2023-03-30T16:11:40;21.95;;;13.38;;
11348;SDS011;5729;43.570;27.826;2023-03-30T16:14:06;20.85;;;13.05;;
11348;SDS011;5729;43.570;27.826;2023-03-30T16:16:36;18.67;;;11.30;;
11348;SDS011;5729;43.570;27.826;2023-03-30T16:19:02;14.40;;;9.43;;
11348;SDS011;5729;43.570;27.826;2023-03-30T16:21:27;25.33;;;16.00;;
11348;SDS011;5729;43.570;27.826;2023-03-30T16:23:53;20.95;;;12.75;;
11348;SDS011;5729;43.570;27.826;2023-03-30T16:26:18;19.42;;;12.35;;
11348;SDS011;5729;43.570;27.826;2023-03-30T16:28:44;20.92;;;13.10;;
11348;SDS011;5729;43.570;27.826;2023-03-30T16:31:11;17.30;;;11.27;;
11348;SDS011;5729;43.570;27.826;2023-03-30T16:33:41;32.97;;;17.13;;
11348;SDS011;5729;43.570;27.826;2023-03-30T16:36:08;48.88;;;29.00;;
11348;SDS011;5729;43.570;27.826;2023-03-30T16:38:38;84.72;;;46.60;;
11348;SDS011;5729;43.570;27.826;2023-03-30T16:41:03;62.55;;;35.33;;
11348;SDS011;5729;43.570;27.826;2023-03-30T16:43:30;49.65;;;24.92;;
11348;SDS011;5729;43.570;27.826;2023-03-30T16:45:56;56.95;;;29.50;;
11348;SDS011;5729;43.570;27.826;2023-03-30T16:48:22;48.17;;;24.55;;
11348;SDS011;5729;43.570;27.826;2023-03-30T16:50:51;45.00;;;26.40;;
11348;SDS011;5729;43.570;27.826;2023-03-30T16:53:17;54.75;;;27.33;;
11348;SDS011;5729;43.570;27.826;2023-03-30T16:55:43;61.10;;;35.22;;
11348;SDS011;5729;43.570;27.826;2023-03-30T16:58:10;76.00;;;41.65;;
11348;SDS011;5729;43.570;27.826;2023-03-30T17:00:45;51.28;;;31.60;;
11348;SDS011;5729;43.570;27.826;2023-03-30T17:03:12;37.70;;;21.85;;
11348;SDS011;5729;43.570;27.826;2023-03-30T17:05:38;27.45;;;16.13;;
11348;SDS011;5729;43.570;27.826;2023-03-30T17:08:05;28.30;;;16.42;;
11348;SDS011;5729;43.570;27.826;2023-03-30T17:10:38;21.42;;;13.48;;
11348;SDS011;5729;43.570;27.826;2023-03-30T17:13:04;28.35;;;16.75;;
11348;SDS011;5729;43.570;27.826;2023-03-30T17:15:30;33.28;;;22.20;;
11348;SDS011;5729;43.570;27.826;2023-03-30T17:17:59;17.85;;;9.88;;
11348;SDS011;5729;43.570;27.826;2023-03-30T17:22:54;16.23;;;11.38;;
11348;SDS011;5729;43.570;27.826;2023-03-30T17:25:20;21.95;;;9.27;;
11348;SDS011;5729;43.570;27.826;2023-03-30T17:27:48;18.70;;;11.20;;
11348;SDS011;5729;43.570;27.826;2023-03-30T17:30:16;17.27;;;10.77;;
11348;SDS011;5729;43.570;27.826;2023-03-30T17:33:04;24.30;;;12.80;;
11348;SDS011;5729;43.570;27.826;2023-03-30T17:35:34;26.90;;;13.85;;
11348;SDS011;5729;43.570;27.826;2023-03-30T17:38:00;27.85;;;14.80;;
11348;SDS011;5729;43.570;27.826;2023-03-30T17:40:27;29.77;;;14.45;;